Time;durP1;ratioP1;P1;durP2;ratioP2;P2;SDS_P1;SDS_P2;PMS_P1;PMS_P2;Temp;Humidity;BMP_temperature;BMP_pressure;BME280_temperature;BME280_humidity;BME280_pressure;Samples;Min_cycle;Max_cycle;Signal;HPM_P1;HPM_P2
2023/12/28 00:01:39;;;;;;;6.77;3.77;;;;;;;-1.39;100.00;97897.44;6278431;28;20291;-91
2023/12/28 00:04:41;;;;;;;5.20;4.07;;;;;;;-0.27;100.00;98074.75;6227858;28;20203;-94
2023/12/28 00:07:47;;;;;;;4.17;3.03;;;;;;;-2.59;100.00;97710.66;6234700;28;20200;-94
2023/12/28 00:10:50;;;;;;;6.83;3.70;;;;;;;-3.07;100.00;97667.78;6251288;28;20747;-94
2023/12/28 00:13:59;;;;;;;3.80;3.30;;;;;;;-2.42;100.00;97801.03;6242123;28;20201;-94
2023/12/28 00:17:09;;;;;;;4.60;3.50;;;;;;;-3.54;100.00;97630.94;6245911;28;20258;-95
2023/12/28 00:20:44;;;;;;;4.87;3.93;;;;;;;-2.11;100.00;97850.09;6234493;28;20200;-94
2023/12/28 00:24:03;;;;;;;4.40;3.13;;;;;;;-3.46;100.00;97655.22;6237153;28;20295;-94
2023/12/28 00:27:25;;;;;;;8.03;3.17;;;;;;;-3.47;100.00;97673.59;6259064;28;20207;-95
2023/12/28 00:30:47;;;;;;;7.23;3.70;;;;;;;-2.29;100.00;97816.25;6256525;28;20217;-96
2023/12/28 00:34:02;;;;;;;5.53;3.70;;;;;;;-3.22;100.00;97677.97;6247674;28;20205;-95
2023/12/28 00:37:18;;;;;;;4.90;2.80;;;;;;;-3.54;100.00;97654.38;6255511;28;20204;-95
2023/12/28 00:40:48;;;;;;;4.77;3.43;;;;;;;-3.51;100.00;97654.03;6239778;28;20193;-94
2023/12/28 00:44:34;;;;;;;4.33;2.77;;;;;;;-3.07;100.00;97703.47;6219097;28;20200;-91
2023/12/28 00:47:36;;;;;;;3.80;3.00;;;;;;;-2.55;100.00;97812.88;6234803;28;20575;-91
2023/12/28 00:50:38;;;;;;;4.77;3.37;;;;;;;-3.39;100.00;97613.75;6235123;28;20240;-90
2023/12/28 00:53:40;;;;;;;4.77;3.20;;;;;;;-0.55;100.00;98082.91;6235172;28;20198;-91
2023/12/28 00:56:43;;;;;;;4.53;3.20;;;;;;;-1.71;100.00;97935.56;6234546;28;20193;-90
2023/12/28 00:59:45;;;;;;;4.73;3.40;;;;;;;-0.60;100.00;98092.22;6234676;28;20192;-90
2023/12/28 01:03:20;;;;;;;8.40;3.00;;;;;;;-0.61;100.00;98090.59;6253714;28;20200;-93
2023/12/28 01:06:30;;;;;;;3.73;2.90;;;;;;;-0.71;100.00;98093.34;6237426;28;20294;-94
2023/12/28 01:09:57;;;;;;;4.67;2.83;;;;;;;-2.90;100.00;97799.81;6234653;28;20208;-94
2023/12/28 01:13:36;;;;;;;4.17;2.57;;;;;;;-1.84;100.00;97915.13;6247715;28;20223;-94
2023/12/28 01:17:01;;;;;;;5.17;2.60;;;;;;;-4.00;100.00;97643.28;6263395;28;20224;-95
2023/12/28 01:21:03;;;;;;;3.93;2.37;;;;;;;-4.03;100.00;97647.03;6260481;28;20189;-95
2023/12/28 01:24:09;;;;;;;7.40;3.00;;;;;;;-2.75;100.00;97830.53;6223956;28;20205;-92
2023/12/28 01:27:11;;;;;;;5.13;3.13;;;;;;;-2.02;100.00;97984.88;6226553;28;20590;-93
2023/12/28 01:30:13;;;;;;;4.43;3.17;;;;;;;-1.09;100.00;98107.75;6244704;28;20202;-92
2023/12/28 01:33:17;;;;;;;3.33;2.77;;;;;;;-2.42;100.00;97888.91;6251793;28;20218;-92
2023/12/28 01:36:20;;;;;;;3.60;2.80;;;;;;;-2.89;100.00;97813.66;6209369;28;20744;-92
2023/12/28 01:39:23;;;;;;;4.33;2.50;;;;;;;-2.47;100.00;97901.59;6215860;28;20216;-92
2023/12/28 01:42:25;;;;;;;3.23;2.60;;;;;;;-1.88;100.00;97981.66;6212814;28;20211;-92
2023/12/28 01:45:27;;;;;;;5.00;3.27;;;;;;;-2.50;100.00;97891.47;6216801;28;20207;-92
2023/12/28 01:48:30;;;;;;;5.10;3.20;;;;;;;-2.06;100.00;97967.88;6246638;28;20574;-93
2023/12/28 01:51:33;;;;;;;6.60;3.00;;;;;;;-3.11;100.00;97799.34;6235707;28;20588;-92
2023/12/28 01:54:38;;;;;;;3.87;2.83;;;;;;;-2.85;100.00;97885.38;6230292;28;20672;-94
2023/12/28 01:57:42;;;;;;;2.87;2.53;;;;;;;-3.93;100.00;97659.97;6229736;28;20207;-94
2023/12/28 02:00:46;;;;;;;5.03;2.87;;;;;;;-4.04;100.00;97675.78;6224083;28;20299;-95
2023/12/28 02:03:49;;;;;;;4.57;2.90;;;;;;;-4.33;100.00;97631.84;6218281;28;20219;-95
2023/12/28 02:06:56;;;;;;;5.13;3.60;;;;;;;-3.57;100.00;97741.41;6233373;28;20197;-95
2023/12/28 02:09:59;;;;;;;5.10;3.13;;;;;;;-1.42;100.00;98120.69;6245648;28;20195;-93
2023/12/28 02:13:01;;;;;;;5.60;4.10;;;;;;;-4.26;100.00;97644.06;6251320;28;20227;-93
2023/12/28 02:16:17;;;;;;;6.17;3.80;;;;;;;-4.24;100.00;97597.09;6261103;28;20195;-94
2023/12/28 02:19:34;;;;;;;4.77;3.40;;;;;;;-3.76;100.00;97728.56;6260259;28;20201;-92
2023/12/28 02:22:37;;;;;;;5.90;4.37;;;;;;;-3.20;100.00;97800.25;6257093;28;20291;-92
2023/12/28 02:25:39;;;;;;;5.10;4.23;;;;;;;-3.32;100.00;97789.28;6227810;28;20272;-90
2023/12/28 02:28:41;;;;;;;8.77;4.90;;;;;;;-2.81;100.00;97886.69;6208994;28;20204;-91
2023/12/28 02:31:53;;;;;;;6.00;5.00;;;;;;;-3.31;100.00;97749.22;6241362;28;20216;-92
2023/12/28 02:35:09;;;;;;;6.87;4.80;;;;;;;-4.03;100.00;97682.63;6242235;28;20197;-95
2023/12/28 02:38:30;;;;;;;8.03;3.83;;;;;;;-4.69;100.00;97593.63;6232359;28;20268;-95
2023/12/28 02:41:58;;;;;;;5.70;4.27;;;;;;;-3.95;100.00;97717.31;6190283;28;20194;-94
2023/12/28 02:45:35;;;;;;;6.90;4.70;;;;;;;-4.80;100.00;97582.63;6146685;28;20209;-94
2023/12/28 02:49:33;;;;;;;5.73;4.10;;;;;;;-4.09;100.00;97678.81;6191074;28;20241;-94
2023/12/28 02:57:18;;;;;;;7.57;4.33;;;;;;;-4.95;100.00;97571.94;6204683;28;20229;-94
2023/12/28 03:01:00;;;;;;;5.37;4.00;;;;;;;-3.88;100.00;97737.56;6100435;29;20223;-94
2023/12/28 03:04:26;;;;;;;8.83;4.57;;;;;;;-4.67;100.00;97594.31;6094434;29;20689;-95
2023/12/28 03:07:30;;;;;;;10.00;5.03;;;;;;;-4.60;100.00;97604.91;6075646;29;20212;-94
2023/12/28 03:10:34;;;;;;;8.43;5.37;;;;;;;-4.45;100.00;97594.81;6112305;29;20639;-94
2023/12/28 03:13:36;;;;;;;7.20;4.47;;;;;;;-4.64;100.00;97606.19;6160492;28;20194;-95
2023/12/28 03:16:39;;;;;;;5.90;4.67;;;;;;;-1.88;100.00;98057.38;6159740;28;20206;-94
2023/12/28 03:19:42;;;;;;;10.53;5.53;;;;;;;-1.76;100.00;98050.13;6163779;28;20252;-95
2023/12/28 03:22:45;;;;;;;8.83;5.10;;;;;;;-1.78;100.00;98057.28;6161082;28;20313;-92
2023/12/28 03:25:47;;;;;;;8.97;5.73;;;;;;;-1.80;100.00;98063.66;6185395;28;20554;-91
2023/12/28 03:28:49;;;;;;;7.30;5.10;;;;;;;-3.99;100.00;97708.22;6171556;28;20204;-91
2023/12/28 03:31:52;;;;;;;8.47;5.23;;;;;;;-3.86;100.00;97761.66;6225911;28;20757;-90
2023/12/28 03:34:57;;;;;;;6.03;4.70;;;;;;;-4.65;100.00;97621.94;6226150;28;20226;-92
2023/12/28 03:38:00;;;;;;;7.27;4.93;;;;;;;-3.44;100.00;97821.75;6237195;28;20199;-93
2023/12/28 03:41:02;;;;;;;8.80;5.53;;;;;;;-4.33;100.00;97718.44;6246654;28;20691;-92
2023/12/28 03:44:04;;;;;;;7.50;4.93;;;;;;;-4.47;100.00;97643.56;6222257;28;20699;-94
2023/12/28 03:47:07;;;;;;;10.97;5.00;;;;;;;-2.34;100.00;97995.91;6238052;28;20202;-93
2023/12/28 03:50:10;;;;;;;7.80;4.97;;;;;;;-3.02;100.00;97909.69;6249181;28;20374;-93
2023/12/28 03:53:12;;;;;;;6.47;4.77;;;;;;;-3.89;100.00;97770.59;6231449;28;20204;-90
2023/12/28 03:56:25;;;;;;;8.67;5.10;;;;;;;-4.70;100.00;97636.19;6238906;28;20745;-92
2023/12/28 03:59:28;;;;;;;9.17;4.67;;;;;;;-4.96;100.00;97612.69;6228751;28;20572;-91
2023/12/28 04:02:31;;;;;;;6.80;4.77;;;;;;;-4.46;100.00;97687.59;6241744;28;20199;-91
2023/12/28 04:05:36;;;;;;;6.27;4.60;;;;;;;-5.36;100.00;97563.72;6224632;28;20208;-92
2023/12/28 04:08:40;;;;;;;9.27;6.17;;;;;;;-3.74;100.00;97818.53;6223519;28;20557;-92
2023/12/28 04:11:42;;;;;;;8.17;5.43;;;;;;;-4.76;100.00;97674.94;6220912;28;20569;-91
2023/12/28 04:14:46;;;;;;;7.60;5.00;;;;;;;-3.33;100.00;97915.28;6237645;28;20184;-91
2023/12/28 04:17:48;;;;;;;7.40;5.23;;;;;;;-4.62;100.00;97694.41;6236642;28;20196;-90
2023/12/28 04:20:50;;;;;;;7.10;4.83;;;;;;;-4.56;100.00;97732.81;6248167;28;20179;-89
2023/12/28 04:23:52;;;;;;;8.77;5.47;;;;;;;-3.65;100.00;97856.69;6266685;28;20176;-91
2023/12/28 04:26:55;;;;;;;8.77;5.27;;;;;;;-3.91;100.00;97807.13;6266184;28;20183;-91
2023/12/28 04:29:57;;;;;;;7.20;4.97;;;;;;;-5.40;100.00;97603.09;6266545;28;20239;-92
2023/12/28 04:33:03;;;;;;;7.47;5.10;;;;;;;-2.27;100.00;98085.66;6271526;23;20250;-53
2023/12/28 04:36:05;;;;;;;7.10;5.53;;;;;;;-2.13;100.00;98090.34;6227780;28;20205;-55
2023/12/28 04:39:08;;;;;;;8.57;5.60;;;;;;;-2.03;100.00;98099.88;6252000;28;20241;-57
2023/12/28 04:42:10;;;;;;;10.03;5.13;;;;;;;-2.07;100.00;98099.34;6229268;28;20287;-54
2023/12/28 04:45:12;;;;;;;8.77;5.83;;;;;;;-2.20;100.00;98097.16;6234665;28;20294;-55
2023/12/28 04:48:14;;;;;;;8.00;5.20;;;;;;;-2.18;100.00;98107.41;6231326;28;20559;-53
2023/12/28 04:51:18;;;;;;;7.97;5.27;;;;;;;-2.39;100.00;98079.84;6222187;28;20602;-56
2023/12/28 04:54:23;;;;;;;10.20;5.77;;;;;;;-2.14;100.00;98116.59;6232912;28;20187;-52
2023/12/28 04:57:27;;;;;;;6.30;4.77;;;;;;;-2.13;100.00;98118.22;6237606;28;20184;-48
2023/12/28 05:00:30;;;;;;;8.03;5.70;;;;;;;-2.16;100.00;98114.16;6239002;28;20191;-54
2023/12/28 05:03:32;;;;;;;12.83;5.37;;;;;;;-2.21;100.00;98119.00;6218056;28;20239;-53
2023/12/28 05:06:34;;;;;;;10.27;5.93;;;;;;;-2.24;100.00;98116.69;6215823;28;20195;-54
2023/12/28 05:09:36;;;;;;;10.57;6.23;;;;;;;-2.28;100.00;98099.66;6233325;28;20196;-56
2023/12/28 05:12:39;;;;;;;8.30;5.90;;;;;;;-2.21;100.00;98105.13;6231860;28;20216;-55
2023/12/28 05:15:46;;;;;;;10.20;6.70;;;;;;;-2.25;100.00;98106.41;6238757;28;20742;-55
2023/12/28 05:18:48;;;;;;;11.17;6.47;;;;;;;-2.10;100.00;98110.09;6237737;28;20191;-55
2023/12/28 05:21:50;;;;;;;13.23;7.03;;;;;;;-2.19;100.00;98105.78;6240034;28;20196;-56
2023/12/28 05:24:52;;;;;;;9.53;6.17;;;;;;;-2.25;100.00;98103.78;6252149;28;20200;-53
2023/12/28 05:27:54;;;;;;;6.97;5.53;;;;;;;-2.35;100.00;98107.28;6257941;28;20199;-52
2023/12/28 05:30:58;;;;;;;6.63;4.90;;;;;;;-2.33;100.00;98118.38;6256497;28;20290;-56
2023/12/28 05:34:01;;;;;;;7.27;5.33;;;;;;;-2.30;100.00;98132.13;6251013;28;20231;-54
2023/12/28 05:37:03;;;;;;;7.70;5.03;;;;;;;-2.31;100.00;98127.88;6257145;28;20218;-55
2023/12/28 05:40:06;;;;;;;6.43;5.00;;;;;;;-2.37;100.00;98127.47;6257360;28;20185;-54
2023/12/28 05:43:08;;;;;;;7.47;4.73;;;;;;;-2.38;100.00;98132.84;6260585;28;20667;-56
2023/12/28 05:46:10;;;;;;;4.93;3.73;;;;;;;-2.42;100.00;98136.72;6255654;28;20199;-53
2023/12/28 05:49:12;;;;;;;5.70;4.30;;;;;;;-2.41;100.00;98136.59;6259524;28;20199;-54
2023/12/28 05:52:18;;;;;;;5.33;3.70;;;;;;;-2.41;100.00;98128.75;6250687;28;20659;-56
2023/12/28 05:55:21;;;;;;;6.07;3.97;;;;;;;-2.47;100.00;98125.91;6234860;28;20203;-55
2023/12/28 05:58:23;;;;;;;5.70;4.20;;;;;;;-2.47;100.00;98145.00;6239614;28;20203;-53
2023/12/28 06:01:26;;;;;;;4.00;3.60;;;;;;;-2.43;100.00;98135.09;6238925;28;20199;-54
2023/12/28 06:04:28;;;;;;;5.77;3.97;;;;;;;-2.49;100.00;98144.31;6240397;28;20769;-55
2023/12/28 06:07:30;;;;;;;5.07;3.50;;;;;;;-2.54;100.00;98141.34;6241308;28;20645;-55
2023/12/28 06:10:33;;;;;;;5.77;3.70;;;;;;;-2.59;100.00;98146.19;6239703;28;20330;-53
2023/12/28 06:13:35;;;;;;;5.77;3.70;;;;;;;-2.61;100.00;98140.31;6237972;28;20196;-56
2023/12/28 06:16:37;;;;;;;5.40;3.60;;;;;;;-2.64;100.00;98145.81;6238945;28;20193;-53
2023/12/28 06:19:39;;;;;;;5.20;3.60;;;;;;;-2.69;100.00;98148.84;6243059;28;20187;-52
2023/12/28 06:22:42;;;;;;;9.70;4.07;;;;;;;-2.73;100.00;98157.09;6243476;28;20284;-54
2023/12/28 06:25:44;;;;;;;5.93;4.03;;;;;;;-2.77;100.00;98155.75;6246614;28;20291;-54
2023/12/28 06:28:46;;;;;;;6.53;3.97;;;;;;;-2.77;100.00;98151.34;6247300;28;20276;-55
2023/12/28 06:31:48;;;;;;;5.37;3.50;;;;;;;-2.74;100.00;98160.69;6245369;28;20210;-54
2023/12/28 06:34:50;;;;;;;6.63;3.50;;;;;;;-2.77;100.00;98155.75;6241245;28;20227;-55
2023/12/28 06:37:52;;;;;;;4.23;3.30;;;;;;;-2.82;100.00;98160.59;6244863;28;20273;-56
2023/12/28 06:40:54;;;;;;;5.20;3.70;;;;;;;-3.04;100.00;98128.72;6242450;28;20686;-54
2023/12/28 06:43:56;;;;;;;5.87;3.97;;;;;;;-2.81;100.00;98157.00;6245529;28;20188;-56
2023/12/28 06:46:59;;;;;;;5.60;3.97;;;;;;;-2.83;100.00;98161.56;6241970;28;20731;-54
2023/12/28 06:50:01;;;;;;;5.60;4.00;;;;;;;-2.83;100.00;98169.38;6245169;28;20196;-52
2023/12/28 06:53:03;;;;;;;5.50;4.03;;;;;;;-2.82;100.00;98171.81;6248186;28;20212;-54
2023/12/28 06:56:06;;;;;;;4.80;3.67;;;;;;;-2.78;100.00;98182.78;6237176;28;20230;-52
2023/12/28 06:59:12;;;;;;;4.47;3.50;;;;;;;-2.94;100.00;98154.75;6229195;28;20203;-49
2023/12/28 07:02:14;;;;;;;4.97;3.80;;;;;;;-2.66;100.00;98182.47;6237232;28;20200;-53
2023/12/28 07:05:16;;;;;;;5.20;3.80;;;;;;;-2.63;100.00;98174.34;6243824;28;20200;-54
2023/12/28 07:08:18;;;;;;;6.80;4.07;;;;;;;-2.53;100.00;98184.72;6234733;28;20202;-55
2023/12/28 07:11:20;;;;;;;5.80;4.20;;;;;;;-2.51;100.00;98185.41;6227888;28;20334;-52
2023/12/28 07:14:22;;;;;;;8.17;4.53;;;;;;;-2.48;100.00;98186.88;6239276;28;20265;-52
2023/12/28 07:17:24;;;;;;;8.97;5.33;;;;;;;-2.44;100.00;98194.25;6224280;28;20208;-52
2023/12/28 07:20:26;;;;;;;8.80;5.27;;;;;;;-2.32;100.00;98200.09;6234988;28;20230;-55
2023/12/28 07:23:28;;;;;;;11.33;7.07;;;;;;;-2.22;100.00;98205.25;6231188;28;20567;-54
2023/12/28 07:26:30;;;;;;;13.03;6.23;;;;;;;-2.14;100.00;98211.38;6229040;28;20578;-54
2023/12/28 07:29:32;;;;;;;10.97;6.37;;;;;;;-2.01;100.00;98212.81;6242984;28;20203;-55
2023/12/28 07:32:34;;;;;;;11.17;6.90;;;;;;;-1.92;100.00;98212.72;6231180;28;20213;-55
2023/12/28 07:35:37;;;;;;;17.40;8.20;;;;;;;-1.80;100.00;98195.03;6247736;28;20213;-54
2023/12/28 07:38:39;;;;;;;15.73;8.33;;;;;;;-1.69;100.00;98197.41;6247037;28;20856;-54
2023/12/28 07:41:41;;;;;;;14.67;8.40;;;;;;;-1.60;100.00;98193.06;6247307;28;20828;-55
2023/12/28 07:44:43;;;;;;;12.93;8.10;;;;;;;-1.44;100.00;98181.91;6258955;28;20200;-54
2023/12/28 07:47:45;;;;;;;14.13;8.37;;;;;;;-1.32;100.00;98178.06;6247034;28;20202;-54
2023/12/28 07:50:49;;;;;;;13.00;8.10;;;;;;;-1.16;100.00;98174.72;6243516;28;20196;-53
2023/12/28 07:53:51;;;;;;;13.73;8.43;;;;;;;-1.26;100.00;98143.47;6238642;28;20200;-55
2023/12/28 07:56:53;;;;;;;27.10;10.43;;;;;;;-0.95;100.00;98184.78;6253512;28;20671;-55
2023/12/28 07:59:55;;;;;;;18.83;9.30;;;;;;;-0.86;100.00;98174.22;6255899;28;20317;-53
2023/12/28 08:02:57;;;;;;;16.37;9.20;;;;;;;-0.82;100.00;98188.63;6251210;28;20426;-56
2023/12/28 08:05:59;;;;;;;20.37;10.37;;;;;;;-0.72;100.00;98182.44;6226262;28;20203;-54
2023/12/28 08:09:01;;;;;;;15.67;9.13;;;;;;;-0.63;100.00;98181.50;6247279;28;20192;-56
2023/12/28 08:12:04;;;;;;;14.57;9.67;;;;;;;-0.55;100.00;98197.22;6233924;28;20211;-57
2023/12/28 08:15:06;;;;;;;36.00;13.07;;;;;;;-0.43;100.00;98203.00;6252999;28;20262;-54
2023/12/28 08:18:08;;;;;;;18.00;10.90;;;;;;;-0.36;100.00;98189.09;6243670;28;20779;-57
2023/12/28 08:21:11;;;;;;;31.63;12.57;;;;;;;-0.26;100.00;98195.00;6240686;28;20291;-55
2023/12/28 08:24:13;;;;;;;22.27;11.63;;;;;;;-0.18;100.00;98194.22;6247877;28;20202;-54
2023/12/28 08:27:15;;;;;;;22.93;12.23;;;;;;;-0.12;100.00;98190.13;6251750;28;20666;-55
2023/12/28 08:30:17;;;;;;;20.03;13.27;;;;;;;-0.04;100.00;98195.41;6243664;28;20330;-55
2023/12/28 08:33:20;;;;;;;22.33;12.37;;;;;;;0.07;100.00;98195.06;6239293;28;20318;-56
2023/12/28 08:36:22;;;;;;;19.43;12.40;;;;;;;0.17;100.00;98200.16;6237996;28;20206;-57
2023/12/28 08:39:24;;;;;;;22.83;13.50;;;;;;;0.24;100.00;98215.03;6248804;28;20639;-54
2023/12/28 08:42:26;;;;;;;22.63;14.00;;;;;;;0.36;100.00;98219.97;6244529;28;20196;-54
2023/12/28 08:45:28;;;;;;;20.27;13.70;;;;;;;0.46;100.00;98220.63;6243732;28;20200;-56
2023/12/28 08:48:30;;;;;;;23.73;13.53;;;;;;;0.52;100.00;98219.97;6235283;28;20207;-57
2023/12/28 08:51:32;;;;;;;27.37;14.83;;;;;;;0.57;100.00;98220.28;6241384;28;20215;-53
2023/12/28 08:54:34;;;;;;;26.60;15.50;;;;;;;0.65;100.00;98216.88;6248099;28;20578;-57
2023/12/28 08:57:36;;;;;;;27.20;14.87;;;;;;;0.72;100.00;98216.03;6243210;28;20281;-58
2023/12/28 09:00:45;;;;;;;40.70;16.77;;;;;;;0.81;100.00;98216.03;6226195;28;20672;-55
2023/12/28 09:03:51;;;;;;;29.93;15.43;;;;;;;0.92;100.00;98226.16;6232794;28;20657;-58
2023/12/28 09:06:53;;;;;;;37.50;17.43;;;;;;;0.95;100.00;98229.28;6232710;28;20453;-57
2023/12/28 09:09:56;;;;;;;33.70;16.93;;;;;;;1.03;100.00;98225.78;6244251;28;20219;-51
2023/12/28 09:12:58;;;;;;;26.83;15.87;;;;;;;1.10;100.00;98228.59;6240134;28;20207;-56
2023/12/28 09:16:00;;;;;;;50.17;18.67;;;;;;;1.16;100.00;98233.16;6234429;28;20857;-57
2023/12/28 09:19:07;;;;;;;49.77;18.07;;;;;;;1.20;100.00;98229.22;6234090;28;20198;-57
2023/12/28 09:22:09;;;;;;;24.90;14.97;;;;;;;1.27;100.00;98224.91;6242195;28;20184;-58
2023/12/28 09:25:11;;;;;;;43.13;15.23;;;;;;;1.31;100.00;98225.41;6236111;28;20209;-56
2023/12/28 09:28:13;;;;;;;51.90;17.03;;;;;;;1.25;100.00;98222.47;6230763;28;20203;-54
2023/12/28 09:31:15;;;;;;;45.80;17.07;;;;;;;1.27;100.00;98228.34;6224507;28;20199;-58
2023/12/28 09:34:18;;;;;;;27.73;14.87;;;;;;;1.32;100.00;98221.78;6239190;28;20671;-57
2023/12/28 09:37:20;;;;;;;24.97;15.37;;;;;;;1.20;100.00;98190.66;6236975;28;20195;-56
2023/12/28 09:40:24;;;;;;;25.50;14.97;;;;;;;1.45;100.00;98222.06;6230002;28;20283;-48
2023/12/28 09:43:36;;;;;;;32.00;15.73;;;;;;;1.52;100.00;98218.56;6237576;28;20247;-57
2023/12/28 09:46:42;;;;;;;24.23;13.87;;;;;;;1.53;100.00;98219.41;6251909;28;20192;-56
2023/12/28 09:49:46;;;;;;;32.87;15.13;;;;;;;1.58;100.00;98211.84;6242581;28;20211;-57
2023/12/28 09:52:49;;;;;;;44.57;15.60;;;;;;;1.61;100.00;98202.78;6251844;28;20577;-56
2023/12/28 09:55:51;;;;;;;39.50;15.27;;;;;;;1.55;100.00;98202.50;6247653;28;20194;-54
2023/12/28 09:58:56;;;;;;;27.93;14.03;;;;;;;1.62;100.00;98199.16;6244787;28;20327;-58
2023/12/28 10:02:01;;;;;;;42.20;15.50;;;;;;;1.71;100.00;98198.97;6246180;28;20186;-56
2023/12/28 10:05:06;;;;;;;22.77;14.00;;;;;;;1.76;100.00;98201.88;6250271;28;20580;-57
2023/12/28 10:08:08;;;;;;;32.70;15.87;;;;;;;1.66;100.00;98168.97;6242764;28;20201;-56
2023/12/28 10:11:10;;;;;;;26.03;15.00;;;;;;;1.87;100.00;98189.34;6245083;28;20210;-52
2023/12/28 10:14:13;;;;;;;33.87;16.77;;;;;;;1.87;100.00;98195.41;6237748;28;20203;-56
2023/12/28 10:17:15;;;;;;;28.23;15.93;;;;;;;1.86;100.00;98183.28;6254720;28;20664;-58
2023/12/28 10:20:17;;;;;;;31.70;15.37;;;;;;;1.91;100.00;98178.31;6245764;28;20561;-57
2023/12/28 10:23:21;;;;;;;26.13;13.93;;;;;;;1.93;100.00;98172.91;6238295;28;20212;-58
2023/12/28 10:26:24;;;;;;;41.50;16.33;;;;;;;1.94;100.00;98182.41;6236291;28;20194;-57
2023/12/28 10:29:26;;;;;;;34.97;16.27;;;;;;;1.95;100.00;98169.09;6251415;28;20197;-55
2023/12/28 10:32:28;;;;;;;23.63;14.20;;;;;;;1.97;100.00;98172.38;6242177;28;20211;-58
2023/12/28 10:35:31;;;;;;;29.00;15.57;;;;;;;2.01;100.00;98163.13;6243577;28;20594;-58
2023/12/28 10:38:36;;;;;;;32.87;15.43;;;;;;;2.00;100.00;98158.88;6239834;28;20208;-56
2023/12/28 10:41:40;;;;;;;36.30;15.13;;;;;;;2.03;100.00;98158.53;6240390;28;20198;-54
2023/12/28 10:44:47;;;;;;;29.50;14.70;;;;;;;2.10;100.00;98156.03;6248276;28;20620;-56
2023/12/28 10:48:09;;;;;;;22.57;13.50;;;;;;;2.15;100.00;98160.75;6233430;28;20189;-53
2023/12/28 10:51:17;;;;;;;19.27;12.90;;;;;;;2.20;100.00;98164.47;6244799;28;20212;-55
2023/12/28 10:55:04;;;;;;;25.37;14.53;;;;;;;2.24;100.00;98157.06;6218863;28;20249;-49
2023/12/28 10:58:19;;;;;;;25.93;14.87;;;;;;;2.28;100.00;98145.22;6175908;28;20683;-55
2023/12/28 11:01:26;;;;;;;25.43;14.50;;;;;;;2.29;100.00;98139.75;6170892;28;20218;-55
2023/12/28 11:04:42;;;;;;;23.00;13.33;;;;;;;2.29;100.00;98139.75;6157783;28;20721;-57
2023/12/28 11:07:47;;;;;;;20.33;12.83;;;;;;;2.32;100.00;98131.53;6173386;28;20205;-57
2023/12/28 11:10:51;;;;;;;22.60;13.33;;;;;;;2.36;100.00;98137.22;6169978;28;20224;-56
2023/12/28 11:13:56;;;;;;;21.80;13.47;;;;;;;2.39;100.00;98136.88;6173221;28;20213;-56
2023/12/28 11:17:00;;;;;;;17.50;11.80;;;;;;;2.45;100.00;98136.16;6166572;28;20598;-56
2023/12/28 11:20:05;;;;;;;20.83;13.27;;;;;;;2.49;100.00;98136.63;6170710;28;20206;-52
2023/12/28 11:23:07;;;;;;;19.87;13.30;;;;;;;2.56;100.00;98134.91;6168981;28;20459;-56
2023/12/28 11:26:20;;;;;;;22.17;13.53;;;;;;;2.52;100.00;98131.84;6152988;28;20737;-54
2023/12/28 11:29:23;;;;;;;18.57;11.83;;;;;;;2.57;100.00;98136.56;6222806;28;20677;-55
2023/12/28 11:32:25;;;;;;;18.50;11.67;;;;;;;2.55;100.00;98128.03;6232149;28;20207;-56
2023/12/28 11:35:40;;;;;;;19.30;12.00;;;;;;;2.61;100.00;98114.19;6238765;28;20222;-53
2023/12/28 11:38:43;;;;;;;23.60;14.27;;;;;;;2.66;100.00;98113.59;6236037;28;20199;-51
2023/12/28 11:41:45;;;;;;;29.90;14.03;;;;;;;2.41;100.00;98074.41;6241335;28;20187;-56
2023/12/28 11:44:49;;;;;;;21.73;12.67;;;;;;;2.58;100.00;98106.63;6233879;28;20263;-54
2023/12/28 11:48:02;;;;;;;17.53;11.83;;;;;;;2.64;100.00;98105.91;6241507;28;20219;-56
2023/12/28 11:51:05;;;;;;;21.40;12.57;;;;;;;2.73;100.00;98101.38;6237279;28;20201;-56
2023/12/28 11:54:07;;;;;;;19.80;13.10;;;;;;;2.74;100.00;98101.19;6244324;28;20231;-57
2023/12/28 11:57:09;;;;;;;16.90;10.90;;;;;;;2.74;100.00;98108.28;6249802;28;20192;-56
2023/12/28 12:00:11;;;;;;;15.57;10.20;;;;;;;2.67;100.00;98102.94;6248561;28;20356;-55
2023/12/28 12:03:14;;;;;;;16.17;10.13;;;;;;;2.69;100.00;98089.59;6256842;28;20194;-56
2023/12/28 12:06:16;;;;;;;17.03;11.13;;;;;;;2.67;100.00;98096.84;6244423;28;20205;-54
2023/12/28 12:09:22;;;;;;;17.40;10.80;;;;;;;2.64;100.00;98092.75;6258073;28;20205;-53
2023/12/28 12:12:26;;;;;;;16.50;10.53;;;;;;;2.57;100.00;98089.22;6245444;28;20208;-56
2023/12/28 12:15:29;;;;;;;17.37;11.50;;;;;;;2.55;100.00;98096.47;6256193;28;20565;-52
2023/12/28 12:18:33;;;;;;;21.90;12.10;;;;;;;2.49;100.00;98091.94;6250798;28;20301;-56
2023/12/28 12:21:35;;;;;;;19.27;11.33;;;;;;;2.40;100.00;98087.75;6248197;28;20205;-58
2023/12/28 12:24:38;;;;;;;18.93;12.27;;;;;;;2.38;100.00;98084.50;6250934;28;20722;-55
2023/12/28 12:27:40;;;;;;;22.63;12.63;;;;;;;2.31;100.00;98079.13;6246810;28;20209;-56
2023/12/28 12:30:51;;;;;;;21.60;13.27;;;;;;;2.25;100.00;98080.66;6256555;28;20202;-53
2023/12/28 12:33:54;;;;;;;19.30;12.17;;;;;;;2.29;100.00;98081.94;6244001;28;20268;-53
2023/12/28 12:36:58;;;;;;;19.23;12.27;;;;;;;2.38;100.00;98071.34;6247509;28;20660;-59
2023/12/28 12:40:00;;;;;;;20.60;12.87;;;;;;;2.46;100.00;98076.50;6241474;28;20336;-58
2023/12/28 12:43:03;;;;;;;20.27;12.93;;;;;;;2.37;100.00;98052.13;6246959;28;20202;-58
2023/12/28 12:46:05;;;;;;;17.90;11.87;;;;;;;2.54;100.00;98068.53;6248053;28;20258;-55
2023/12/28 12:49:08;;;;;;;17.13;12.43;;;;;;;2.58;100.00;98075.88;6244421;28;20672;-54
2023/12/28 12:52:10;;;;;;;17.60;12.37;;;;;;;2.56;100.00;98063.91;6247589;28;20212;-56
2023/12/28 12:55:12;;;;;;;16.00;11.00;;;;;;;2.54;100.00;98058.03;6242365;28;20205;-53
2023/12/28 12:58:16;;;;;;;16.77;11.40;;;;;;;2.50;100.00;98054.13;6248462;28;20201;-55
2023/12/28 13:01:18;;;;;;;15.20;10.53;;;;;;;2.44;100.00;98060.91;6241840;28;20201;-54
2023/12/28 13:04:21;;;;;;;14.80;10.77;;;;;;;2.23;100.00;98027.47;6242531;28;20202;-54
2023/12/28 13:07:24;;;;;;;13.83;9.87;;;;;;;2.32;100.00;98046.59;6246180;28;20190;-55
2023/12/28 13:10:26;;;;;;;16.90;11.20;;;;;;;2.37;100.00;98060.00;6238624;28;20205;-55
2023/12/28 13:13:28;;;;;;;15.43;10.57;;;;;;;2.38;100.00;98060.84;6246892;28;20673;-55
2023/12/28 13:16:30;;;;;;;13.33;9.30;;;;;;;2.40;100.00;98071.97;6230478;28;20557;-55
2023/12/28 13:19:33;;;;;;;12.97;9.73;;;;;;;2.40;100.00;98062.25;6243487;28;20191;-56
2023/12/28 13:22:35;;;;;;;14.33;10.30;;;;;;;2.41;100.00;98063.09;6239533;28;20271;-54
2023/12/28 13:25:37;;;;;;;14.13;9.37;;;;;;;2.29;100.00;98052.19;6235981;28;20276;-56
2023/12/28 13:28:39;;;;;;;14.67;10.10;;;;;;;2.40;100.00;98064.91;6239172;28;20224;-57
2023/12/28 13:31:41;;;;;;;13.63;10.00;;;;;;;2.34;100.00;98063.00;6231385;28;20275;-56
2023/12/28 13:34:43;;;;;;;13.43;9.90;;;;;;;2.12;100.00;98037.56;6241045;28;20238;-57
2023/12/28 13:37:45;;;;;;;13.23;10.13;;;;;;;2.29;100.00;98067.97;6236807;28;20229;-54
2023/12/28 13:40:47;;;;;;;13.50;10.00;;;;;;;2.35;100.00;98074.31;6237734;28;20189;-56
2023/12/28 13:43:50;;;;;;;12.67;9.07;;;;;;;2.38;100.00;98074.78;6235145;28;20193;-58
2023/12/28 13:46:53;;;;;;;12.23;9.03;;;;;;;2.41;100.00;98066.53;6230370;28;20714;-56
2023/12/28 13:49:55;;;;;;;12.87;9.10;;;;;;;2.48;100.00;98069.28;6238931;28;20220;-55
2023/12/28 13:52:57;;;;;;;11.27;8.17;;;;;;;2.53;100.00;98074.81;6229708;28;20773;-57
2023/12/28 13:56:02;;;;;;;11.07;8.57;;;;;;;2.44;100.00;98057.47;6243380;28;20208;-55
2023/12/28 13:59:05;;;;;;;11.57;8.20;;;;;;;2.45;100.00;98053.84;6211791;28;20301;-57
2023/12/28 14:02:14;;;;;;;10.07;7.60;;;;;;;2.65;100.00;98075.97;6230953;28;20227;-56
2023/12/28 14:05:34;;;;;;;11.30;8.43;;;;;;;2.73;100.00;98069.81;6246027;28;20201;-53
2023/12/28 14:08:37;;;;;;;10.33;8.00;;;;;;;2.74;100.00;98072.25;6243966;28;20196;-56
2023/12/28 14:11:40;;;;;;;11.87;8.37;;;;;;;2.82;100.00;98071.34;6249311;28;20187;-56
2023/12/28 14:15:10;;;;;;;11.07;7.60;;;;;;;2.82;100.00;98063.47;6242518;28;20203;-57
2023/12/28 14:18:28;;;;;;;9.10;6.87;;;;;;;2.76;100.00;98053.69;6249877;28;20192;-56
2023/12/28 14:21:42;;;;;;;11.03;7.53;;;;;;;2.89;100.00;98072.25;6227415;28;20620;-54
2023/12/28 14:24:49;;;;;;;9.53;7.47;;;;;;;2.88;100.00;98078.50;6247364;28;20182;-56